Time;durP1;ratioP1;P1;durP2;ratioP2;P2;SDS_P1;SDS_P2;PMS_P1;PMS_P2;Temp;Humidity;BMP_temperature;BMP_pressure;BME280_temperature;BME280_humidity;BME280_pressure;Samples;Min_cycle;Max_cycle;Signal;HPM_P1;HPM_P2
2022/07/30 00:00:38;;;;;;;5.82;3.60;;;;;;;16.83;100.00;100756.28;5074581;28;20115;-70
2022/07/30 00:03:04;;;;;;;6.68;3.75;;;;;;;16.80;100.00;100751.19;5074713;28;20028;-70
2022/07/30 00:05:29;;;;;;;8.32;3.70;;;;;;;16.44;100.00;100698.00;5068840;28;20074;-71
2022/07/30 00:07:55;;;;;;;6.35;3.72;;;;;;;16.64;100.00;100739.09;5059866;28;20406;-71
2022/07/30 00:10:21;;;;;;;9.60;4.70;;;;;;;16.64;100.00;100755.88;5071847;28;20119;-71
2022/07/30 00:12:47;;;;;;;10.10;3.72;;;;;;;16.58;100.00;100740.38;5053982;28;20476;-71
2022/07/30 00:15:12;;;;;;;6.32;3.92;;;;;;;16.55;100.00;100734.41;5064255;28;20024;-71
2022/07/30 00:17:38;;;;;;;6.25;3.45;;;;;;;16.58;100.00;100752.78;5044489;28;20878;-72
2022/07/30 00:20:04;;;;;;;10.25;3.97;;;;;;;16.52;100.00;100745.22;5022317;28;20727;-72
2022/07/30 00:22:30;;;;;;;7.57;3.47;;;;;;;16.42;100.00;100733.56;5033536;28;20099;-72
2022/07/30 00:24:55;;;;;;;6.53;4.00;;;;;;;16.39;100.00;100734.63;5061399;28;20475;-72
2022/07/30 00:27:21;;;;;;;6.28;4.00;;;;;;;16.36;100.00;100725.06;5072432;28;20456;-71
2022/07/30 00:29:46;;;;;;;11.88;5.03;;;;;;;16.36;100.00;100743.63;5055522;28;20029;-70
2022/07/30 00:32:11;;;;;;;7.28;4.25;;;;;;;16.21;100.00;100731.41;5054641;28;20401;-70
2022/07/30 00:34:37;;;;;;;5.30;4.28;;;;;;;16.22;100.00;100741.06;5056402;28;20075;-70
2022/07/30 00:37:02;;;;;;;6.75;3.92;;;;;;;16.12;100.00;100736.50;5065847;28;20077;-70
2022/07/30 00:39:29;;;;;;;10.20;4.30;;;;;;;16.03;100.00;100737.97;5058059;28;20086;-70
2022/07/30 00:41:58;;;;;;;10.25;5.05;;;;;;;16.03;100.00;100740.59;5055706;28;20029;-71
2022/07/30 00:44:24;;;;;;;8.85;4.45;;;;;;;16.02;100.00;100746.03;5036288;28;20532;-71
2022/07/30 00:46:50;;;;;;;10.90;4.97;;;;;;;15.89;100.00;100740.69;5082813;28;20037;-70
2022/07/30 00:49:16;;;;;;;8.13;4.25;;;;;;;15.80;100.00;100742.16;5066121;28;20024;-71
2022/07/30 00:51:41;;;;;;;8.70;4.07;;;;;;;15.85;100.00;100744.47;5072261;28;20020;-71
2022/07/30 00:54:07;;;;;;;10.02;4.60;;;;;;;15.64;100.00;100719.41;5073595;28;20029;-71
2022/07/30 00:56:32;;;;;;;8.00;5.65;;;;;;;15.73;100.00;100743.50;5052614;28;20139;-70
2022/07/30 00:58:57;;;;;;;10.52;5.15;;;;;;;15.73;100.00;100740.84;5034081;28;20033;-72
2022/07/30 01:01:23;;;;;;;14.57;5.00;;;;;;;15.64;100.00;100745.91;5028428;28;20496;-72
2022/07/30 01:03:48;;;;;;;9.77;5.15;;;;;;;15.50;100.00;100730.06;5029369;28;20033;-72
2022/07/30 01:06:13;;;;;;;11.23;5.53;;;;;;;15.54;100.00;100750.13;5057961;28;20020;-70
2022/07/30 01:08:39;;;;;;;11.07;5.40;;;;;;;15.44;100.00;100733.94;5067860;28;20032;-72
2022/07/30 01:11:04;;;;;;;9.45;5.50;;;;;;;15.51;100.00;100734.41;5066091;28;20052;-70
2022/07/30 01:13:29;;;;;;;9.18;5.93;;;;;;;15.39;100.00;100719.28;5062443;28;20110;-70
2022/07/30 01:15:56;;;;;;;8.70;5.72;;;;;;;15.40;100.00;100737.72;5061172;28;20154;-70
2022/07/30 01:18:23;;;;;;;8.15;6.03;;;;;;;15.44;100.00;100738.38;5071054;28;20028;-70
2022/07/30 01:21:04;;;;;;;8.38;5.60;;;;;;;15.40;100.00;100736.88;5056899;28;20024;-69
2022/07/30 01:23:37;;;;;;;9.35;5.97;;;;;;;15.29;100.00;100724.31;5068056;28;20035;-70
2022/07/30 01:26:04;;;;;;;14.43;7.07;;;;;;;15.32;100.00;100743.50;5074537;28;20031;-70
2022/07/30 01:28:36;;;;;;;9.25;5.13;;;;;;;15.29;100.00;100741.06;5071106;28;20025;-70
2022/07/30 01:31:02;;;;;;;9.70;6.15;;;;;;;15.28;100.00;100738.50;5065807;28;20047;-70
2022/07/30 01:33:29;;;;;;;20.05;6.80;;;;;;;15.17;100.00;100736.56;5089584;27;20021;-69
2022/07/30 01:35:56;;;;;;;8.85;6.50;;;;;;;15.12;100.00;100730.69;5065698;28;20490;-69
2022/07/30 01:38:23;;;;;;;11.57;6.30;;;;;;;15.04;100.00;100719.72;5088641;28;20024;-68
2022/07/30 01:40:50;;;;;;;10.23;5.65;;;;;;;15.10;100.00;100735.25;5092600;28;20056;-69
2022/07/30 01:43:17;;;;;;;13.68;7.78;;;;;;;14.77;100.00;100684.44;5068524;28;20471;-69
2022/07/30 01:45:42;;;;;;;10.60;7.13;;;;;;;14.95;100.00;100735.34;5053121;28;20414;-70
2022/07/30 01:48:08;;;;;;;12.05;8.48;;;;;;;14.94;100.00;100742.44;5061395;28;20190;-70
2022/07/30 01:50:35;;;;;;;20.02;6.47;;;;;;;14.61;100.00;100686.34;5073015;28;20048;-70
2022/07/30 01:53:01;;;;;;;12.23;7.72;;;;;;;14.83;100.00;100737.84;5054420;28;20028;-70
2022/07/30 01:55:31;;;;;;;13.70;6.78;;;;;;;14.64;100.00;100704.66;5092021;28;20021;-70
2022/07/30 01:57:58;;;;;;;10.90;7.40;;;;;;;14.80;100.00;100731.88;5056129;28;20057;-70
2022/07/30 02:00:26;;;;;;;13.88;7.45;;;;;;;14.88;100.00;100750.75;5080414;28;20472;-69
2022/07/30 02:02:53;;;;;;;12.80;8.60;;;;;;;14.76;100.00;100735.66;5052061;28;20403;-69
2022/07/30 02:05:18;;;;;;;8.55;7.00;;;;;;;14.82;100.00;100751.16;5096221;28;20107;-69
2022/07/30 02:07:55;;;;;;;8.80;7.28;;;;;;;14.76;100.00;100749.75;5079127;28;20040;-69
2022/07/30 02:10:27;;;;;;;11.15;7.90;;;;;;;14.70;100.00;100755.38;5063964;28;20071;-70
2022/07/30 02:12:55;;;;;;;11.13;7.07;;;;;;;14.69;100.00;100751.06;5062553;28;20471;-70
2022/07/30 02:15:30;;;;;;;13.82;9.32;;;;;;;14.65;100.00;100753.97;5079348;28;20024;-71
2022/07/30 02:18:00;;;;;;;16.00;9.38;;;;;;;14.57;100.00;100735.94;5056756;28;20150;-70
2022/07/30 02:20:28;;;;;;;15.20;9.23;;;;;;;14.59;100.00;100743.78;5074381;28;20062;-71
2022/07/30 02:22:59;;;;;;;10.85;7.82;;;;;;;14.57;100.00;100753.59;5068211;28;20069;-71
2022/07/30 02:25:25;;;;;;;12.98;8.27;;;;;;;14.57;100.00;100754.44;5062613;28;20056;-70
2022/07/30 02:27:57;;;;;;;16.77;8.50;;;;;;;14.56;100.00;100755.41;5067896;28;20025;-70
2022/07/30 02:30:25;;;;;;;10.02;7.40;;;;;;;14.51;100.00;100765.41;5074371;28;20028;-70
2022/07/30 02:32:54;;;;;;;14.18;7.93;;;;;;;14.40;100.00;100740.56;5077103;28;20359;-71
2022/07/30 02:35:21;;;;;;;9.40;7.40;;;;;;;14.45;100.00;100756.97;5021456;28;1523088;-72
2022/07/30 02:37:47;;;;;;;14.40;8.25;;;;;;;14.39;100.00;100752.94;5064416;28;20390;-71
2022/07/30 02:40:15;;;;;;;10.52;7.70;;;;;;;14.38;100.00;100753.00;5089007;28;20050;-70
2022/07/30 02:42:42;;;;;;;14.27;7.38;;;;;;;14.32;100.00;100752.41;5061970;28;20032;-70
2022/07/30 02:45:08;;;;;;;11.98;7.68;;;;;;;14.19;100.00;100748.78;5055807;28;20044;-70
2022/07/30 02:47:35;;;;;;;13.57;8.15;;;;;;;13.97;100.00;100716.66;5042447;28;20028;-70
2022/07/30 02:50:01;;;;;;;13.63;8.25;;;;;;;13.99;100.00;100738.53;5029579;28;20043;-70
2022/07/30 02:52:27;;;;;;;14.07;8.15;;;;;;;14.14;100.00;100769.34;5027571;28;20068;-70
2022/07/30 02:54:55;;;;;;;12.43;8.48;;;;;;;14.13;100.00;100772.94;5066039;28;20021;-70
2022/07/30 02:57:21;;;;;;;12.57;8.40;;;;;;;14.06;100.00;100763.66;5075060;28;20119;-72
2022/07/30 02:59:46;;;;;;;14.50;8.70;;;;;;;13.93;100.00;100744.19;5054590;28;20190;-72
2022/07/30 03:02:12;;;;;;;14.10;10.40;;;;;;;14.02;100.00;100758.66;5084556;28;20032;-72
2022/07/30 03:04:38;;;;;;;14.63;9.93;;;;;;;13.90;100.00;100752.28;5081544;28;20047;-72
2022/07/30 03:07:05;;;;;;;14.52;11.18;;;;;;;13.96;100.00;100765.13;5068239;28;20051;-72
2022/07/30 03:09:31;;;;;;;15.05;11.13;;;;;;;13.96;100.00;100778.34;5053000;28;20464;-71
2022/07/30 03:11:56;;;;;;;12.65;10.48;;;;;;;13.92;100.00;100768.06;5098435;28;20131;-71
2022/07/30 03:14:22;;;;;;;17.73;13.73;;;;;;;13.84;100.00;100760.56;5071642;28;20024;-71
2022/07/30 03:16:57;;;;;;;18.25;12.10;;;;;;;13.92;100.00;100774.22;5072473;28;20025;-71
2022/07/30 03:19:24;;;;;;;18.95;12.45;;;;;;;13.90;100.00;100772.56;5060346;28;20020;-71
2022/07/30 03:21:51;;;;;;;19.38;13.88;;;;;;;13.89;100.00;100771.72;5059217;28;20025;-71
2022/07/30 03:24:17;;;;;;;19.98;15.13;;;;;;;13.86;100.00;100768.44;5053766;28;20016;-71
2022/07/30 03:26:43;;;;;;;15.55;13.93;;;;;;;13.78;100.00;100760.94;5059561;28;20037;-72
2022/07/30 03:29:09;;;;;;;16.98;14.60;;;;;;;13.74;100.00;100754.13;5055700;28;20071;-72
2022/07/30 03:31:35;;;;;;;23.25;16.23;;;;;;;13.60;100.00;100725.00;5050440;28;20525;-71
2022/07/30 03:34:01;;;;;;;23.58;16.77;;;;;;;13.83;100.00;100772.06;5063579;28;20037;-70
2022/07/30 03:36:27;;;;;;;22.45;16.63;;;;;;;13.84;100.00;100773.78;5066677;28;20108;-70
2022/07/30 03:38:53;;;;;;;26.00;18.45;;;;;;;13.56;100.00;100745.47;5083138;28;20038;-70
2022/07/30 03:41:19;;;;;;;22.33;18.95;;;;;;;13.81;100.00;100772.19;5080845;28;20104;-70
2022/07/30 03:43:45;;;;;;;31.17;19.60;;;;;;;13.69;100.00;100769.38;5081713;28;20073;-70
2022/07/30 03:46:11;;;;;;;21.80;19.45;;;;;;;13.72;100.00;100771.84;5083785;28;20024;-71
2022/07/30 03:48:37;;;;;;;23.17;19.05;;;;;;;13.75;100.00;100787.53;5071181;28;20389;-71
2022/07/30 03:51:05;;;;;;;21.77;18.13;;;;;;;13.67;100.00;100773.91;5076972;28;20040;-71
2022/07/30 03:53:31;;;;;;;24.70;20.13;;;;;;;13.73;100.00;100782.31;5060010;28;20362;-71
2022/07/30 03:55:56;;;;;;;24.25;18.45;;;;;;;13.69;100.00;100787.84;5059766;28;20033;-71
2022/07/30 03:58:22;;;;;;;27.00;20.60;;;;;;;13.66;100.00;100780.09;5067130;28;20021;-71
2022/07/30 04:00:49;;;;;;;23.42;19.98;;;;;;;13.71;100.00;100797.41;5055163;28;20029;-71
2022/07/30 04:03:28;;;;;;;25.67;20.98;;;;;;;13.71;100.00;100796.56;5057906;28;20074;-70
2022/07/30 04:05:54;;;;;;;23.08;20.38;;;;;;;13.69;100.00;100785.22;5074799;28;20037;-70
2022/07/30 04:08:20;;;;;;;28.83;22.20;;;;;;;13.81;100.00;100803.03;5074745;28;20028;-70
2022/07/30 04:10:45;;;;;;;26.55;23.77;;;;;;;13.88;100.00;100804.38;5083155;28;20024;-71
2022/07/30 04:13:10;;;;;;;25.88;21.60;;;;;;;13.92;100.00;100808.56;5077416;28;20043;-71
2022/07/30 04:15:55;;;;;;;25.00;21.27;;;;;;;13.96;100.00;100802.13;5088131;28;20020;-70
2022/07/30 04:18:22;;;;;;;31.92;26.92;;;;;;;14.05;100.00;100800.75;5072327;28;20119;-70
2022/07/30 04:20:48;;;;;;;45.47;32.28;;;;;;;14.10;100.00;100799.53;5054896;28;20146;-71
2022/07/30 04:23:13;;;;;;;41.08;34.08;;;;;;;14.08;100.00;100800.56;5066133;28;20495;-70
2022/07/30 04:25:39;;;;;;;43.20;34.28;;;;;;;14.10;100.00;100804.81;5066149;28;20033;-71
2022/07/30 04:28:06;;;;;;;56.97;38.65;;;;;;;14.15;100.00;100802.78;5063383;28;20024;-70
2022/07/30 04:30:33;;;;;;;52.45;39.95;;;;;;;14.25;100.00;100809.22;5062150;28;20048;-71
2022/07/30 04:32:59;;;;;;;53.55;39.92;;;;;;;14.23;100.00;100804.94;5067339;28;20033;-71
2022/07/30 04:35:32;;;;;;;47.63;39.92;;;;;;;14.36;100.00;100816.56;5067096;28;20043;-70
2022/07/30 04:37:57;;;;;;;57.80;40.45;;;;;;;14.32;100.00;100815.88;5071207;28;20031;-71
2022/07/30 04:40:23;;;;;;;67.05;42.22;;;;;;;14.35;100.00;100814.00;5063605;28;20021;-71
2022/07/30 04:42:49;;;;;;;57.95;43.92;;;;;;;14.41;100.00;100827.72;5069904;28;20024;-71
2022/07/30 04:45:14;;;;;;;62.25;44.95;;;;;;;14.46;100.00;100830.94;5055671;28;20116;-71
2022/07/30 04:47:40;;;;;;;67.50;47.90;;;;;;;14.43;100.00;100827.63;5066786;28;20029;-71
2022/07/30 04:50:06;;;;;;;75.32;46.28;;;;;;;14.36;100.00;100821.84;5092506;28;20107;-71
2022/07/30 04:52:32;;;;;;;77.90;48.78;;;;;;;14.29;100.00;100805.47;5058149;28;20495;-70
2022/07/30 04:55:03;;;;;;;68.35;51.90;;;;;;;14.42;100.00;100823.28;5104120;28;20537;-71
2022/07/30 04:57:30;;;;;;;76.97;56.05;;;;;;;14.44;100.00;100835.47;5073846;28;20032;-71
2022/07/30 04:59:56;;;;;;;72.88;51.42;;;;;;;14.47;100.00;100845.00;5046274;28;20029;-71
2022/07/30 05:02:22;;;;;;;80.47;57.63;;;;;;;14.53;100.00;100844.66;5068707;28;20110;-70
2022/07/30 05:04:49;;;;;;;78.78;54.08;;;;;;;14.47;100.00;100835.28;5103488;28;20020;-71
2022/07/30 05:07:16;;;;;;;75.10;51.58;;;;;;;14.15;100.00;100786.94;5082942;28;20394;-70
2022/07/30 05:09:42;;;;;;;74.47;51.75;;;;;;;14.23;100.00;100802.31;5077619;28;20055;-71
2022/07/30 05:12:07;;;;;;;84.43;57.92;;;;;;;14.49;100.00;100843.97;5072537;28;20464;-70
2022/07/30 05:14:33;;;;;;;80.40;52.17;;;;;;;14.50;100.00;100843.03;5071659;28;20071;-70
2022/07/30 05:16:58;;;;;;;73.55;52.90;;;;;;;14.62;100.00;100857.31;5062551;28;20024;-70
2022/07/30 05:19:24;;;;;;;84.65;50.35;;;;;;;14.51;100.00;100847.38;5084444;28;20491;-70
2022/07/30 05:21:50;;;;;;;68.47;53.17;;;;;;;14.63;100.00;100866.97;5064585;28;20029;-71
2022/07/30 05:24:16;;;;;;;77.28;54.00;;;;;;;14.55;100.00;100861.28;5050332;28;20106;-71
2022/07/30 05:26:41;;;;;;;75.47;54.85;;;;;;;14.54;100.00;100856.91;5057008;28;20044;-71
2022/07/30 05:29:07;;;;;;;69.47;51.17;;;;;;;14.62;100.00;100854.69;5084786;28;20479;-71
2022/07/30 05:31:32;;;;;;;74.93;51.40;;;;;;;14.66;100.00;100856.22;5067894;28;20029;-71
2022/07/30 05:33:58;;;;;;;84.10;50.35;;;;;;;14.79;100.00;100865.97;5059818;28;20098;-71
2022/07/30 05:36:23;;;;;;;69.28;51.22;;;;;;;14.48;100.00;100814.97;5057015;28;20029;-71
2022/07/30 05:38:48;;;;;;;71.03;48.63;;;;;;;14.84;100.00;100855.09;5053499;28;20043;-71
2022/07/30 05:41:14;;;;;;;80.50;50.53;;;;;;;14.69;100.00;100827.78;5059610;28;20032;-71
2022/07/30 05:43:40;;;;;;;66.65;48.83;;;;;;;14.90;100.00;100853.88;5081694;28;20056;-71
2022/07/30 05:46:05;;;;;;;69.15;49.53;;;;;;;15.05;100.00;100866.16;5081100;28;20112;-71
2022/07/30 05:48:34;;;;;;;58.22;43.17;;;;;;;15.05;100.00;100869.66;5079380;28;20029;-71
2022/07/30 05:50:59;;;;;;;63.88;46.50;;;;;;;15.06;100.00;100867.88;5060173;28;20040;-71
2022/07/30 05:53:25;;;;;;;70.80;44.75;;;;;;;15.11;100.00;100864.00;5064671;28;20479;-71
2022/07/30 05:55:50;;;;;;;69.65;41.35;;;;;;;15.06;100.00;100839.63;5066445;28;20074;-71
2022/07/30 05:58:16;;;;;;;60.28;40.63;;;;;;;15.22;100.00;100856.25;5056601;28;20117;-71
2022/07/30 06:00:41;;;;;;;49.45;36.70;;;;;;;15.25;100.00;100844.59;5061279;28;20071;-70
2022/07/30 06:03:07;;;;;;;61.33;40.63;;;;;;;15.28;100.00;100858.50;5089824;28;20030;-70
2022/07/30 06:05:32;;;;;;;56.75;37.13;;;;;;;15.29;100.00;100848.78;5061483;28;20016;-70
2022/07/30 06:07:57;;;;;;;61.22;37.97;;;;;;;15.47;100.00;100862.66;5061410;28;20148;-70
2022/07/30 06:10:23;;;;;;;53.38;37.85;;;;;;;15.37;100.00;100829.75;5055730;28;20098;-70
2022/07/30 06:12:48;;;;;;;53.53;34.75;;;;;;;15.61;100.00;100852.09;5065125;28;20033;-70
2022/07/30 06:15:14;;;;;;;49.13;33.90;;;;;;;15.74;100.00;100864.44;5055497;28;20039;-70
2022/07/30 06:17:44;;;;;;;39.22;30.25;;;;;;;15.72;100.00;100858.38;5053492;28;20086;-70
2022/07/30 06:20:12;;;;;;;48.95;28.90;;;;;;;15.83;100.00;100874.44;5068304;28;20029;-71
2022/07/30 06:22:38;;;;;;;37.03;27.42;;;;;;;15.89;100.00;100878.50;5075054;28;20025;-71
2022/07/30 06:25:04;;;;;;;41.35;28.85;;;;;;;15.70;100.00;100840.88;5068113;28;20033;-70
2022/07/30 06:27:29;;;;;;;40.15;28.52;;;;;;;15.68;100.00;100854.22;5056812;28;20025;-70
2022/07/30 06:29:55;;;;;;;45.53;30.08;;;;;;;15.80;100.00;100879.09;5052290;28;20036;-70
2022/07/30 06:32:20;;;;;;;39.50;29.17;;;;;;;15.72;100.00;100865.47;5061513;28;21106;-70
2022/07/30 06:34:45;;;;;;;45.08;29.77;;;;;;;15.90;100.00;100890.81;5062662;28;20064;-70
2022/07/30 06:37:11;;;;;;;39.67;28.77;;;;;;;15.87;100.00;100869.81;5066790;28;20032;-70
2022/07/30 06:39:36;;;;;;;37.20;28.38;;;;;;;16.25;100.00;100886.72;5066789;28;20024;-70
2022/07/30 06:42:02;;;;;;;40.83;26.75;;;;;;;16.26;100.00;100864.53;5078448;28;20037;-70
2022/07/30 06:44:27;;;;;;;46.40;28.27;;;;;;;16.63;100.00;100892.16;5074013;28;20433;-70
2022/07/30 06:46:53;;;;;;;36.20;24.55;;;;;;;16.26;100.00;100822.09;5064937;28;20113;-70
2022/07/30 06:49:18;;;;;;;29.52;24.90;;;;;;;16.66;100.00;100886.63;5061658;28;20056;-70
2022/07/30 06:51:44;;;;;;;40.53;31.95;;;;;;;16.66;100.00;100881.31;5058403;28;20028;-70
2022/07/30 06:54:10;;;;;;;31.60;27.95;;;;;;;16.56;100.00;100860.84;5057087;28;20107;-70
2022/07/30 06:56:36;;;;;;;39.03;29.60;;;;;;;16.81;100.00;100908.63;5072171;28;20445;-70
2022/07/30 06:59:01;;;;;;;37.60;30.58;;;;;;;16.77;100.00;100909.78;5078732;28;20028;-72
2022/07/30 07:01:26;;;;;;;39.35;31.48;;;;;;;16.63;100.00;100893.94;5066493;28;20051;-70
2022/07/30 07:03:52;;;;;;;29.90;25.45;;;;;;;16.64;100.00;100896.50;5062990;28;20123;-71
2022/07/30 07:06:18;;;;;;;40.13;27.15;;;;;;;16.63;100.00;100892.16;5072876;28;20025;-70
2022/07/30 07:08:43;;;;;;;34.75;26.45;;;;;;;16.61;100.00;100893.22;5074628;28;20032;-70
2022/07/30 07:11:09;;;;;;;31.08;24.33;;;;;;;16.69;100.00;100906.81;5079749;28;20074;-70
2022/07/30 07:13:34;;;;;;;33.30;27.40;;;;;;;16.68;100.00;100913.94;5086776;28;20033;-70
2022/07/30 07:16:00;;;;;;;30.27;25.05;;;;;;;16.71;100.00;100915.53;5085383;28;20359;-70
2022/07/30 07:18:25;;;;;;;35.67;26.08;;;;;;;16.68;100.00;100899.81;5087925;28;20025;-71
2022/07/30 07:20:50;;;;;;;30.40;25.42;;;;;;;16.72;100.00;100896.00;5081869;28;20055;-70
2022/07/30 07:23:16;;;;;;;39.85;26.98;;;;;;;16.75;100.00;100915.22;5078538;28;20061;-70
2022/07/30 07:25:41;;;;;;;33.60;25.40;;;;;;;16.60;100.00;100908.28;5086603;28;20020;-70
2022/07/30 07:28:07;;;;;;;34.88;24.10;;;;;;;16.59;100.00;100911.06;5072815;28;20475;-70
2022/07/30 07:30:32;;;;;;;28.55;22.73;;;;;;;16.63;100.00;100907.22;5081145;28;20075;-70
2022/07/30 07:32:58;;;;;;;25.80;22.23;;;;;;;16.66;100.00;100899.91;5066225;28;20071;-70
2022/07/30 07:35:23;;;;;;;26.65;21.15;;;;;;;16.99;100.00;100922.47;5086155;28;20470;-71
2022/07/30 07:37:49;;;;;;;28.48;21.50;;;;;;;17.14;100.00;100908.13;5061047;28;20034;-70
2022/07/30 07:40:14;;;;;;;25.23;19.90;;;;;;;17.25;100.00;100911.75;5075196;28;20158;-71
2022/07/30 07:42:40;;;;;;;31.20;20.13;;;;;;;17.40;100.00;100915.16;5088435;28;20067;-71
2022/07/30 07:45:06;;;;;;;19.23;14.68;;;;;;;17.34;100.00;100905.78;5067987;28;20154;-70
2022/07/30 07:47:44;;;;;;;22.38;14.82;;;;;;;17.24;100.00;100912.69;5069146;28;20036;-71
2022/07/30 07:50:10;;;;;;;20.88;14.70;;;;;;;17.27;100.00;100923.09;5081039;28;20032;-71
2022/07/30 07:52:35;;;;;;;25.77;16.17;;;;;;;17.33;100.00;100914.72;5052029;28;20025;-70
2022/07/30 07:55:01;;;;;;;25.50;17.00;;;;;;;17.52;100.00;100916.94;5073751;28;20498;-70
2022/07/30 07:57:26;;;;;;;23.50;16.35;;;;;;;17.62;100.00;100911.84;5073648;28;20033;-70
2022/07/30 07:59:53;;;;;;;28.42;19.40;;;;;;;17.62;100.00;100919.81;5085816;28;20454;-71
2022/07/30 08:02:18;;;;;;;22.20;15.57;;;;;;;17.38;100.00;100904.63;5074365;28;20486;-70
2022/07/30 08:04:45;;;;;;;23.33;14.77;;;;;;;17.40;100.00;100914.31;5075337;28;20040;-72
2022/07/30 08:07:11;;;;;;;19.90;14.90;;;;;;;17.31;100.00;100911.31;5063437;28;20021;-71
2022/07/30 08:09:36;;;;;;;18.70;16.77;;;;;;;17.28;100.00;100908.88;5059676;28;20530;-71
2022/07/30 08:12:01;;;;;;;30.52;21.80;;;;;;;17.41;100.00;100915.97;5077578;28;20024;-70
2022/07/30 08:14:27;;;;;;;22.85;14.90;;;;;;;17.45;100.00;100912.16;5056237;28;20032;-71
2022/07/30 08:16:52;;;;;;;19.38;14.38;;;;;;;17.55;100.00;100918.50;5057802;28;20035;-71
2022/07/30 08:19:18;;;;;;;23.75;17.15;;;;;;;17.63;100.00;100919.72;5071058;28;20031;-71
2022/07/30 08:21:43;;;;;;;25.10;17.27;;;;;;;17.79;100.00;100922.13;5052947;28;20033;-71
2022/07/30 08:24:08;;;;;;;22.20;16.85;;;;;;;17.84;100.00;100926.13;5077424;28;20394;-71
2022/07/30 08:26:34;;;;;;;18.23;13.15;;;;;;;17.79;100.00;100922.13;5078354;28;20028;-71
2022/07/30 08:28:59;;;;;;;18.25;13.50;;;;;;;17.86;100.00;100928.69;5074821;28;20029;-71
2022/07/30 08:31:24;;;;;;;15.50;13.73;;;;;;;17.91;100.00;100915.94;5058381;28;20029;-70
2022/07/30 08:33:50;;;;;;;14.55;12.98;;;;;;;17.97;100.00;100915.50;5057458;28;20108;-71
2022/07/30 08:36:15;;;;;;;17.55;11.75;;;;;;;18.04;100.00;100911.44;5067820;28;20029;-71
2022/07/30 08:38:40;;;;;;;18.92;14.23;;;;;;;18.12;100.00;100913.50;5082368;28;20081;-70
2022/07/30 08:41:06;;;;;;;14.70;12.57;;;;;;;18.26;100.00;100922.19;5077823;28;20021;-70
2022/07/30 08:43:32;;;;;;;14.07;9.60;;;;;;;18.45;100.00;100926.16;5084217;28;20059;-70
2022/07/30 08:45:57;;;;;;;14.23;8.68;;;;;;;18.50;100.00;100926.66;5080677;28;20036;-69
2022/07/30 08:48:24;;;;;;;12.65;8.52;;;;;;;18.28;100.00;100892.81;5072782;28;20024;-70
2022/07/30 08:50:49;;;;;;;11.27;8.57;;;;;;;18.49;100.00;100927.59;5076630;28;20090;-70
2022/07/30 08:53:16;;;;;;;9.35;7.50;;;;;;;18.42;100.00;100916.56;5059767;28;20021;-70
2022/07/30 08:55:41;;;;;;;11.82;7.97;;;;;;;18.50;100.00;100914.22;5071776;28;20025;-70
2022/07/30 08:58:23;;;;;;;12.18;6.18;;;;;;;18.63;100.00;100920.31;5068442;28;20437;-70
2022/07/30 09:00:48;;;;;;;10.40;7.10;;;;;;;18.65;100.00;100894.44;5089858;27;20032;-71
2022/07/30 09:03:14;;;;;;;9.82;6.35;;;;;;;18.82;100.00;100903.81;5070637;28;20356;-71
2022/07/30 09:05:39;;;;;;;10.90;6.57;;;;;;;18.86;100.00;100902.59;5064563;28;20094;-71
2022/07/30 09:08:05;;;;;;;10.95;5.95;;;;;;;19.08;100.00;100909.78;5063767;28;20033;-69
2022/07/30 09:10:30;;;;;;;8.55;5.63;;;;;;;19.25;100.00;100910.19;5052556;28;20029;-69
2022/07/30 09:12:56;;;;;;;10.32;6.18;;;;;;;19.28;100.00;100898.44;5076038;28;20032;-70
2022/07/30 09:15:22;;;;;;;8.75;5.60;;;;;;;19.36;100.00;100898.69;5074542;28;20043;-70
2022/07/30 09:17:59;;;;;;;8.23;5.53;;;;;;;19.49;100.00;100903.94;5062036;28;20480;-70
2022/07/30 09:20:31;;;;;;;11.32;4.75;;;;;;;19.67;100.00;100918.47;5062419;28;20396;-70
2022/07/30 09:22:58;;;;;;;13.73;4.93;;;;;;;19.64;100.00;100913.38;5071279;28;20024;-70
2022/07/30 09:25:37;;;;;;;12.48;4.90;;;;;;;19.73;100.00;100926.00;5059810;28;20436;-71
2022/07/30 09:28:03;;;;;;;6.75;4.90;;;;;;;19.79;100.00;100928.16;5056586;28;20033;-71
2022/07/30 09:30:49;;;;;;;6.15;3.72;;;;;;;19.79;100.00;100920.16;5066004;28;20036;-71
2022/07/30 09:33:16;;;;;;;6.82;3.50;;;;;;;19.84;100.00;100909.94;5055343;28;20467;-71
2022/07/30 09:35:42;;;;;;;8.68;3.55;;;;;;;19.95;100.00;100912.59;5067912;28;20495;-69
2022/07/30 09:38:08;;;;;;;5.45;3.17;;;;;;;20.13;100.00;100919.13;5063370;28;20020;-71
2022/07/30 09:40:33;;;;;;;5.43;3.25;;;;;;;20.12;100.00;100912.09;5065187;28;20442;-71
2022/07/30 09:43:08;;;;;;;7.65;2.70;;;;;;;20.09;100.00;100893.66;5054879;28;20131;-71
2022/07/30 09:45:34;;;;;;;4.88;2.72;;;;;;;20.37;100.00;100918.97;5062080;28;20377;-71
2022/07/30 09:48:00;;;;;;;6.85;2.63;;;;;;;20.29;100.00;100892.06;5062412;28;20074;-71
2022/07/30 09:50:26;;;;;;;4.68;3.25;;;;;;;20.53;100.00;100913.19;5073126;28;20057;-70
2022/07/30 09:52:52;;;;;;;3.63;2.35;;;;;;;20.62;100.00;100917.75;5072492;28;20052;-71
2022/07/30 09:55:29;;;;;;;4.78;2.63;;;;;;;20.69;100.00;100901.09;5056368;28;20027;-70
2022/07/30 09:57:57;;;;;;;6.22;2.70;;;;;;;20.81;100.00;100901.91;5072202;28;20025;-69
2022/07/30 10:00:24;;;;;;;7.03;2.28;;;;;;;20.99;100.00;100916.34;5056073;28;20024;-71
2022/07/30 10:02:50;;;;;;;7.25;2.70;;;;;;;21.01;100.00;100903.72;5062287;28;20025;-71
2022/07/30 10:05:18;;;;;;;6.68;2.83;;;;;;;21.02;100.00;100899.22;5068694;28;20493;-71
2022/07/30 10:07:58;;;;;;;3.83;2.30;;;;;;;21.04;100.00;100903.44;5074229;28;20024;-71
2022/07/30 10:10:26;;;;;;;5.25;2.17;;;;;;;21.05;100.00;100890.94;5050713;28;20024;-71
2022/07/30 10:12:58;;;;;;;4.75;2.50;;;;;;;21.24;100.00;100905.28;5048743;28;20033;-71
2022/07/30 10:15:30;;;;;;;5.65;2.65;;;;;;;21.44;100.00;100902.69;5055506;28;20107;-71
2022/07/30 10:17:56;;;;;;;3.80;1.90;;;;;;;21.53;100.00;100893.88;5072590;28;20029;-70
2022/07/30 10:20:21;;;;;;;4.07;2.10;;;;;;;21.61;100.00;100892.22;5066427;28;20024;-71
2022/07/30 10:22:47;;;;;;;4.50;2.20;;;;;;;21.81;100.00;100903.81;5071688;28;20037;-72
2022/07/30 10:25:17;;;;;;;9.77;2.28;;;;;;;21.94;100.00;100898.25;5056080;28;20033;-71
2022/07/30 10:27:43;;;;;;;7.03;2.45;;;;;;;21.90;100.00;100892.31;5074937;28;20032;-71
2022/07/30 10:30:09;;;;;;;5.40;2.33;;;;;;;21.92;100.00;100895.72;5037286;28;20029;-71
2022/07/30 10:32:37;;;;;;;3.58;1.90;;;;;;;21.91;97.04;100910.09;5051662;28;20475;-72
2022/07/30 10:35:03;;;;;;;5.90;2.30;;;;;;;21.75;94.19;100899.88;5069557;28;20437;-72
2022/07/30 10:37:30;;;;;;;3.95;1.85;;;;;;;21.66;91.62;100892.69;5071492;28;20029;-71
2022/07/30 10:40:01;;;;;;;4.10;1.70;;;;;;;21.66;94.86;100881.13;5051597;28;20472;-70
2022/07/30 10:42:55;;;;;;;3.22;1.83;;;;;;;21.88;96.17;100888.91;5052148;28;20044;-71
2022/07/30 10:45:52;;;;;;;3.58;1.88;;;;;;;22.00;96.37;100882.50;5082518;28;20028;-71
2022/07/30 10:48:18;;;;;;;4.97;1.70;;;;;;;22.05;95.64;100869.53;5064958;28;20063;-71
2022/07/30 10:51:02;;;;;;;10.95;2.15;;;;;;;22.40;93.38;100891.28;5058726;28;20111;-71
2022/07/30 10:53:34;;;;;;;4.40;2.30;;;;;;;22.55;88.66;100877.44;5061147;28;20041;-72
2022/07/30 10:56:17;;;;;;;3.42;1.58;;;;;;;22.68;89.80;100897.63;5068986;28;20356;-72
2022/07/30 10:59:05;;;;;;;4.32;1.60;;;;;;;22.87;89.82;100900.31;5083858;28;20031;-72
2022/07/30 11:01:46;;;;;;;4.10;2.22;;;;;;;22.97;83.87;100897.63;5074158;28;20020;-72
2022/07/30 11:04:24;;;;;;;4.63;2.10;;;;;;;22.83;83.30;100898.91;5086317;28;20745;-72
2022/07/30 11:06:50;;;;;;;5.90;2.45;;;;;;;22.93;82.43;100888.16;5066261;28;20033;-69